sensor_id;sensor_type;location;lat;lon;timestamp;temperature;humidity
2929;DHT22;1474;51.460;7.150;2023-03-23T00:00:53;11.20;99.90
2929;DHT22;1474;51.460;7.150;2023-03-23T00:03:20;11.30;99.90
2929;DHT22;1474;51.460;7.150;2023-03-23T00:05:47;11.20;99.90
2929;DHT22;1474;51.460;7.150;2023-03-23T00:08:21;11.20;99.90
2929;DHT22;1474;51.460;7.150;2023-03-23T00:10:50;11.20;99.90
2929;DHT22;1474;51.460;7.150;2023-03-23T00:13:26;11.20;99.90
2929;DHT22;1474;51.460;7.150;2023-03-23T00:15:52;11.30;99.90
2929;DHT22;1474;51.460;7.150;2023-03-23T00:18:19;11.30;99.90
2929;DHT22;1474;51.460;7.150;2023-03-23T00:20:52;11.30;99.90
2929;DHT22;1474;51.460;7.150;2023-03-23T00:23:19;11.30;99.90
2929;DHT22;1474;51.460;7.150;2023-03-23T00:25:51;11.40;99.90
2929;DHT22;1474;51.460;7.150;2023-03-23T00:28:19;11.40;99.90
2929;DHT22;1474;51.460;7.150;2023-03-23T00:31:04;11.40;99.90
2929;DHT22;1474;51.460;7.150;2023-03-23T00:33:33;11.40;99.90
2929;DHT22;1474;51.460;7.150;2023-03-23T00:36:08;11.50;99.90
2929;DHT22;1474;51.460;7.150;2023-03-23T00:38:34;11.50;99.90
2929;DHT22;1474;51.460;7.150;2023-03-23T00:41:01;11.50;99.90
2929;DHT22;1474;51.460;7.150;2023-03-23T00:43:30;11.60;99.90
2929;DHT22;1474;51.460;7.150;2023-03-23T00:45:57;11.60;99.90
2929;DHT22;1474;51.460;7.150;2023-03-23T00:48:27;11.60;99.90
2929;DHT22;1474;51.460;7.150;2023-03-23T00:50:53;11.60;99.90
2929;DHT22;1474;51.460;7.150;2023-03-23T00:53:19;11.70;99.90
2929;DHT22;1474;51.460;7.150;2023-03-23T00:55:46;11.70;99.90
2929;DHT22;1474;51.460;7.150;2023-03-23T00:58:14;11.70;99.90
2929;DHT22;1474;51.460;7.150;2023-03-23T01:00:41;11.70;99.90
2929;DHT22;1474;51.460;7.150;2023-03-23T01:03:07;11.70;99.90
2929;DHT22;1474;51.460;7.150;2023-03-23T01:05:38;11.70;99.90
2929;DHT22;1474;51.460;7.150;2023-03-23T01:08:05;11.70;99.90
2929;DHT22;1474;51.460;7.150;2023-03-23T01:10:31;11.70;99.90
2929;DHT22;1474;51.460;7.150;2023-03-23T01:13:04;11.70;99.90
2929;DHT22;1474;51.460;7.150;2023-03-23T01:15:30;11.70;99.90
2929;DHT22;1474;51.460;7.150;2023-03-23T01:17:57;11.70;99.90
2929;DHT22;1474;51.460;7.150;2023-03-23T01:20:24;11.70;99.90
2929;DHT22;1474;51.460;7.150;2023-03-23T01:22:49;11.70;99.90
2929;DHT22;1474;51.460;7.150;2023-03-23T01:25:15;11.70;99.90
2929;DHT22;1474;51.460;7.150;2023-03-23T01:27:41;11.70;99.90
2929;DHT22;1474;51.460;7.150;2023-03-23T01:30:11;11.70;99.90
2929;DHT22;1474;51.460;7.150;2023-03-23T01:32:37;11.70;99.90
2929;DHT22;1474;51.460;7.150;2023-03-23T01:35:03;11.70;99.90
2929;DHT22;1474;51.460;7.150;2023-03-23T01:37:30;11.60;99.90
2929;DHT22;1474;51.460;7.150;2023-03-23T01:39:56;11.70;99.90
2929;DHT22;1474;51.460;7.150;2023-03-23T01:42:24;11.60;99.90
2929;DHT22;1474;51.460;7.150;2023-03-23T01:47:17;11.60;99.90
2929;DHT22;1474;51.460;7.150;2023-03-23T01:49:46;11.60;99.90
2929;DHT22;1474;51.460;7.150;2023-03-23T01:52:22;11.60;99.90
2929;DHT22;1474;51.460;7.150;2023-03-23T01:54:49;11.60;99.90
2929;DHT22;1474;51.460;7.150;2023-03-23T01:57:17;11.60;99.90
2929;DHT22;1474;51.460;7.150;2023-03-23T01:59:49;11.60;99.90
2929;DHT22;1474;51.460;7.150;2023-03-23T02:02:15;11.60;99.90
2929;DHT22;1474;51.460;7.150;2023-03-23T02:04:42;11.50;99.90
2929;DHT22;1474;51.460;7.150;2023-03-23T02:07:08;11.50;99.90
2929;DHT22;1474;51.460;7.150;2023-03-23T02:09:34;11.50;99.90
2929;DHT22;1474;51.460;7.150;2023-03-23T02:12:00;11.50;99.90
2929;DHT22;1474;51.460;7.150;2023-03-23T02:14:27;11.60;99.90
2929;DHT22;1474;51.460;7.150;2023-03-23T02:28:18;11.60;99.90
2929;DHT22;1474;51.460;7.150;2023-03-23T02:31:01;11.60;99.90
2929;DHT22;1474;51.460;7.150;2023-03-23T02:33:41;11.60;99.90
2929;DHT22;1474;51.460;7.150;2023-03-23T02:36:21;11.60;99.90
2929;DHT22;1474;51.460;7.150;2023-03-23T02:41:42;11.60;99.90
2929;DHT22;1474;51.460;7.150;2023-03-23T02:44:08;11.60;99.90
2929;DHT22;1474;51.460;7.150;2023-03-23T02:46:36;11.60;99.90
2929;DHT22;1474;51.460;7.150;2023-03-23T02:49:04;11.50;99.90
2929;DHT22;1474;51.460;7.150;2023-03-23T02:51:32;11.50;99.90
2929;DHT22;1474;51.460;7.150;2023-03-23T02:53:59;11.50;99.90
2929;DHT22;1474;51.460;7.150;2023-03-23T02:56:26;11.50;99.90
2929;DHT22;1474;51.460;7.150;2023-03-23T02:58:54;11.50;99.90
2929;DHT22;1474;51.460;7.150;2023-03-23T03:03:52;11.40;99.90
2929;DHT22;1474;51.460;7.150;2023-03-23T03:10:19;11.40;99.90
2929;DHT22;1474;51.460;7.150;2023-03-23T03:13:03;11.40;99.90
2929;DHT22;1474;51.460;7.150;2023-03-23T03:15:37;11.40;99.90
2929;DHT22;1474;51.460;7.150;2023-03-23T03:18:21;11.40;99.90
2929;DHT22;1474;51.460;7.150;2023-03-23T03:20:52;11.40;99.90
2929;DHT22;1474;51.460;7.150;2023-03-23T03:23:20;11.40;99.90
2929;DHT22;1474;51.460;7.150;2023-03-23T03:25:48;11.40;99.90
2929;DHT22;1474;51.460;7.150;2023-03-23T03:28:16;11.40;99.90
2929;DHT22;1474;51.460;7.150;2023-03-23T03:30:43;11.50;99.90
2929;DHT22;1474;51.460;7.150;2023-03-23T03:33:11;11.50;99.90
2929;DHT22;1474;51.460;7.150;2023-03-23T03:35:39;11.50;99.90
2929;DHT22;1474;51.460;7.150;2023-03-23T03:38:08;11.50;99.90
2929;DHT22;1474;51.460;7.150;2023-03-23T03:40:34;11.50;99.90
2929;DHT22;1474;51.460;7.150;2023-03-23T03:42:59;11.50;99.90
2929;DHT22;1474;51.460;7.150;2023-03-23T03:45:25;11.50;99.90
2929;DHT22;1474;51.460;7.150;2023-03-23T03:47:51;11.50;99.90
2929;DHT22;1474;51.460;7.150;2023-03-23T03:50:16;11.60;99.90
2929;DHT22;1474;51.460;7.150;2023-03-23T03:52:42;11.60;99.90
2929;DHT22;1474;51.460;7.150;2023-03-23T03:55:09;11.60;99.90
2929;DHT22;1474;51.460;7.150;2023-03-23T03:57:35;11.60;99.90
2929;DHT22;1474;51.460;7.150;2023-03-23T04:00:03;11.70;99.90
2929;DHT22;1474;51.460;7.150;2023-03-23T04:02:39;11.70;99.90
2929;DHT22;1474;51.460;7.150;2023-03-23T04:05:06;11.70;99.90
2929;DHT22;1474;51.460;7.150;2023-03-23T04:07:31;11.70;99.90
2929;DHT22;1474;51.460;7.150;2023-03-23T04:09:57;11.70;99.90
2929;DHT22;1474;51.460;7.150;2023-03-23T04:12:23;11.70;99.90
2929;DHT22;1474;51.460;7.150;2023-03-23T04:14:48;11.70;99.90
2929;DHT22;1474;51.460;7.150;2023-03-23T04:17:14;11.80;99.90
2929;DHT22;1474;51.460;7.150;2023-03-23T04:19:40;11.80;99.90
2929;DHT22;1474;51.460;7.150;2023-03-23T04:22:06;11.80;99.90
2929;DHT22;1474;51.460;7.150;2023-03-23T04:24:31;11.80;99.90
2929;DHT22;1474;51.460;7.150;2023-03-23T04:26:59;11.80;99.90
2929;DHT22;1474;51.460;7.150;2023-03-23T04:29:26;11.80;99.90
2929;DHT22;1474;51.460;7.150;2023-03-23T04:31:52;11.80;99.90
2929;DHT22;1474;51.460;7.150;2023-03-23T04:34:18;11.90;99.90
2929;DHT22;1474;51.460;7.150;2023-03-23T04:36:44;11.90;99.90
2929;DHT22;1474;51.460;7.150;2023-03-23T04:39:11;11.90;99.90
2929;DHT22;1474;51.460;7.150;2023-03-23T04:41:37;11.90;99.90
2929;DHT22;1474;51.460;7.150;2023-03-23T04:44:03;11.90;99.90
2929;DHT22;1474;51.460;7.150;2023-03-23T04:46:30;11.90;99.90
2929;DHT22;1474;51.460;7.150;2023-03-23T04:48:56;11.90;99.90
2929;DHT22;1474;51.460;7.150;2023-03-23T04:51:26;11.90;99.90
2929;DHT22;1474;51.460;7.150;2023-03-23T04:53:52;11.90;99.90
2929;DHT22;1474;51.460;7.150;2023-03-23T04:56:18;11.90;99.90
2929;DHT22;1474;51.460;7.150;2023-03-23T04:58:45;11.90;99.90
2929;DHT22;1474;51.460;7.150;2023-03-23T05:01:11;11.90;99.90
2929;DHT22;1474;51.460;7.150;2023-03-23T05:03:40;12.00;99.90
2929;DHT22;1474;51.460;7.150;2023-03-23T05:06:06;12.00;99.90
2929;DHT22;1474;51.460;7.150;2023-03-23T05:08:32;12.00;99.90
2929;DHT22;1474;51.460;7.150;2023-03-23T05:11:00;12.00;99.90
2929;DHT22;1474;51.460;7.150;2023-03-23T05:13:27;12.00;99.90
2929;DHT22;1474;51.460;7.150;2023-03-23T05:15:54;12.00;99.90
2929;DHT22;1474;51.460;7.150;2023-03-23T05:18:19;12.00;99.90
2929;DHT22;1474;51.460;7.150;2023-03-23T05:20:46;12.10;99.90
2929;DHT22;1474;51.460;7.150;2023-03-23T05:23:12;12.10;99.90
2929;DHT22;1474;51.460;7.150;2023-03-23T05:25:38;12.10;99.90
2929;DHT22;1474;51.460;7.150;2023-03-23T05:28:08;12.10;99.90
2929;DHT22;1474;51.460;7.150;2023-03-23T05:30:35;12.10;99.90
2929;DHT22;1474;51.460;7.150;2023-03-23T05:33:01;12.10;99.90
2929;DHT22;1474;51.460;7.150;2023-03-23T05:35:26;12.10;99.90
2929;DHT22;1474;51.460;7.150;2023-03-23T05:37:52;12.10;99.90
2929;DHT22;1474;51.460;7.150;2023-03-23T05:40:19;12.10;99.90
2929;DHT22;1474;51.460;7.150;2023-03-23T05:42:45;12.10;99.90
2929;DHT22;1474;51.460;7.150;2023-03-23T05:45:12;12.10;99.90
2929;DHT22;1474;51.460;7.150;2023-03-23T05:47:39;12.10;99.90
2929;DHT22;1474;51.460;7.150;2023-03-23T05:50:07;12.20;99.90
2929;DHT22;1474;51.460;7.150;2023-03-23T05:52:35;12.10;99.90
2929;DHT22;1474;51.460;7.150;2023-03-23T05:55:03;12.10;99.90
2929;DHT22;1474;51.460;7.150;2023-03-23T05:57:30;12.20;99.90
2929;DHT22;1474;51.460;7.150;2023-03-23T05:59:56;12.10;99.90
2929;DHT22;1474;51.460;7.150;2023-03-23T06:02:23;12.10;99.90
2929;DHT22;1474;51.460;7.150;2023-03-23T06:04:50;12.20;99.90
2929;DHT22;1474;51.460;7.150;2023-03-23T06:07:17;12.20;99.90
2929;DHT22;1474;51.460;7.150;2023-03-23T06:09:43;12.20;99.90
2929;DHT22;1474;51.460;7.150;2023-03-23T06:12:09;12.20;99.90
2929;DHT22;1474;51.460;7.150;2023-03-23T06:14:36;12.20;99.90
2929;DHT22;1474;51.460;7.150;2023-03-23T06:17:02;12.20;99.90
2929;DHT22;1474;51.460;7.150;2023-03-23T06:19:28;12.20;99.90
2929;DHT22;1474;51.460;7.150;2023-03-23T06:21:56;12.20;99.90
2929;DHT22;1474;51.460;7.150;2023-03-23T06:24:22;12.20;99.90
2929;DHT22;1474;51.460;7.150;2023-03-23T06:26:48;12.20;99.90
2929;DHT22;1474;51.460;7.150;2023-03-23T06:29:15;12.20;99.90
2929;DHT22;1474;51.460;7.150;2023-03-23T06:31:47;12.20;99.90
2929;DHT22;1474;51.460;7.150;2023-03-23T06:34:14;12.20;99.90
2929;DHT22;1474;51.460;7.150;2023-03-23T06:36:40;12.20;99.90
2929;DHT22;1474;51.460;7.150;2023-03-23T06:39:06;12.30;99.90
2929;DHT22;1474;51.460;7.150;2023-03-23T06:41:32;12.30;99.90
2929;DHT22;1474;51.460;7.150;2023-03-23T06:43:58;12.30;99.90
2929;DHT22;1474;51.460;7.150;2023-03-23T06:46:24;12.30;99.90
2929;DHT22;1474;51.460;7.150;2023-03-23T06:48:50;12.40;99.90
2929;DHT22;1474;51.460;7.150;2023-03-23T06:51:17;12.40;99.90
2929;DHT22;1474;51.460;7.150;2023-03-23T06:53:43;12.30;99.90
2929;DHT22;1474;51.460;7.150;2023-03-23T06:56:09;12.40;99.90
2929;DHT22;1474;51.460;7.150;2023-03-23T06:58:34;12.40;99.90
2929;DHT22;1474;51.460;7.150;2023-03-23T07:01:00;12.40;99.90
2929;DHT22;1474;51.460;7.150;2023-03-23T07:03:26;12.40;99.90
2929;DHT22;1474;51.460;7.150;2023-03-23T07:05:53;12.50;99.90
2929;DHT22;1474;51.460;7.150;2023-03-23T07:08:19;12.50;99.90
2929;DHT22;1474;51.460;7.150;2023-03-23T07:10:46;12.60;99.90
2929;DHT22;1474;51.460;7.150;2023-03-23T07:13:12;12.60;99.90
2929;DHT22;1474;51.460;7.150;2023-03-23T07:15:39;12.60;99.90
2929;DHT22;1474;51.460;7.150;2023-03-23T07:18:04;12.60;99.90
2929;DHT22;1474;51.460;7.150;2023-03-23T07:20:30;12.70;99.90
2929;DHT22;1474;51.460;7.150;2023-03-23T07:22:56;12.70;99.90
2929;DHT22;1474;51.460;7.150;2023-03-23T07:25:21;12.60;99.90
2929;DHT22;1474;51.460;7.150;2023-03-23T07:27:47;12.70;99.90
2929;DHT22;1474;51.460;7.150;2023-03-23T07:30:13;12.70;99.90
2929;DHT22;1474;51.460;7.150;2023-03-23T07:32:40;12.70;99.90
2929;DHT22;1474;51.460;7.150;2023-03-23T07:35:07;12.70;99.90
2929;DHT22;1474;51.460;7.150;2023-03-23T07:37:33;12.80;99.90
2929;DHT22;1474;51.460;7.150;2023-03-23T07:40:03;12.80;99.90
2929;DHT22;1474;51.460;7.150;2023-03-23T07:42:57;12.80;99.90
2929;DHT22;1474;51.460;7.150;2023-03-23T07:45:23;12.90;99.90
2929;DHT22;1474;51.460;7.150;2023-03-23T07:47:48;12.90;99.90
2929;DHT22;1474;51.460;7.150;2023-03-23T07:50:14;12.90;99.90
2929;DHT22;1474;51.460;7.150;2023-03-23T07:52:40;12.80;99.90
2929;DHT22;1474;51.460;7.150;2023-03-23T07:55:08;12.80;99.90
2929;DHT22;1474;51.460;7.150;2023-03-23T07:57:35;12.80;99.90
2929;DHT22;1474;51.460;7.150;2023-03-23T08:00:00;12.80;99.90
2929;DHT22;1474;51.460;7.150;2023-03-23T08:02:28;12.90;99.90
2929;DHT22;1474;51.460;7.150;2023-03-23T08:04:57;12.90;99.90
2929;DHT22;1474;51.460;7.150;2023-03-23T08:07:26;12.90;99.90
2929;DHT22;1474;51.460;7.150;2023-03-23T08:09:51;12.90;99.90
2929;DHT22;1474;51.460;7.150;2023-03-23T08:12:17;12.90;99.90
2929;DHT22;1474;51.460;7.150;2023-03-23T08:14:43;12.90;99.90
2929;DHT22;1474;51.460;7.150;2023-03-23T08:17:08;12.90;99.90
2929;DHT22;1474;51.460;7.150;2023-03-23T08:19:35;12.90;99.90
2929;DHT22;1474;51.460;7.150;2023-03-23T08:22:03;12.90;99.90
2929;DHT22;1474;51.460;7.150;2023-03-23T08:24:30;12.90;99.90
2929;DHT22;1474;51.460;7.150;2023-03-23T08:26:55;13.00;99.90
2929;DHT22;1474;51.460;7.150;2023-03-23T08:29:21;13.00;99.90
2929;DHT22;1474;51.460;7.150;2023-03-23T08:31:47;13.00;99.90
2929;DHT22;1474;51.460;7.150;2023-03-23T08:34:13;13.00;99.90
2929;DHT22;1474;51.460;7.150;2023-03-23T08:36:39;13.10;99.90
2929;DHT22;1474;51.460;7.150;2023-03-23T08:39:05;13.10;99.90
2929;DHT22;1474;51.460;7.150;2023-03-23T08:41:31;13.20;99.90
2929;DHT22;1474;51.460;7.150;2023-03-23T08:43:57;13.30;99.90
2929;DHT22;1474;51.460;7.150;2023-03-23T08:46:23;13.30;99.90
2929;DHT22;1474;51.460;7.150;2023-03-23T08:48:48;13.40;99.90
2929;DHT22;1474;51.460;7.150;2023-03-23T08:51:14;13.40;99.90
2929;DHT22;1474;51.460;7.150;2023-03-23T08:53:40;13.50;99.90
2929;DHT22;1474;51.460;7.150;2023-03-23T08:56:10;13.60;99.90
2929;DHT22;1474;51.460;7.150;2023-03-23T08:58:37;13.60;99.90
2929;DHT22;1474;51.460;7.150;2023-03-23T09:01:04;13.60;99.90
2929;DHT22;1474;51.460;7.150;2023-03-23T09:03:33;13.60;99.90
2929;DHT22;1474;51.460;7.150;2023-03-23T09:06:04;13.70;99.90
2929;DHT22;1474;51.460;7.150;2023-03-23T09:08:30;13.70;99.90
2929;DHT22;1474;51.460;7.150;2023-03-23T09:11:01;13.70;99.90
2929;DHT22;1474;51.460;7.150;2023-03-23T09:13:28;13.70;99.90
2929;DHT22;1474;51.460;7.150;2023-03-23T09:15:54;13.80;99.90
2929;DHT22;1474;51.460;7.150;2023-03-23T09:18:19;13.70;99.90
2929;DHT22;1474;51.460;7.150;2023-03-23T09:20:45;13.70;99.90
2929;DHT22;1474;51.460;7.150;2023-03-23T09:23:12;13.70;99.90
2929;DHT22;1474;51.460;7.150;2023-03-23T09:25:38;13.70;99.90
2929;DHT22;1474;51.460;7.150;2023-03-23T09:28:04;13.70;99.90
2929;DHT22;1474;51.460;7.150;2023-03-23T09:30:32;13.70;99.90
2929;DHT22;1474;51.460;7.150;2023-03-23T09:33:00;13.60;99.90
2929;DHT22;1474;51.460;7.150;2023-03-23T09:35:29;13.60;99.90
2929;DHT22;1474;51.460;7.150;2023-03-23T09:37:56;13.50;99.90
2929;DHT22;1474;51.460;7.150;2023-03-23T09:48:51;13.60;99.90
2929;DHT22;1474;51.460;7.150;2023-03-23T09:51:46;13.60;99.90
2929;DHT22;1474;51.460;7.150;2023-03-23T09:56:39;13.60;99.90
2929;DHT22;1474;51.460;7.150;2023-03-23T10:02:34;13.60;99.90
2929;DHT22;1474;51.460;7.150;2023-03-23T10:05:35;13.60;99.90
2929;DHT22;1474;51.460;7.150;2023-03-23T10:08:05;13.60;99.90
2929;DHT22;1474;51.460;7.150;2023-03-23T10:13:39;13.40;99.90
2929;DHT22;1474;51.460;7.150;2023-03-23T10:16:12;13.40;99.90
2929;DHT22;1474;51.460;7.150;2023-03-23T10:21:29;12.90;99.90
2929;DHT22;1474;51.460;7.150;2023-03-23T10:23:58;12.60;99.90
2929;DHT22;1474;51.460;7.150;2023-03-23T10:26:53;12.40;99.90
2929;DHT22;1474;51.460;7.150;2023-03-23T10:29:26;12.30;99.90
2929;DHT22;1474;51.460;7.150;2023-03-23T10:34:32;12.20;99.90
2929;DHT22;1474;51.460;7.150;2023-03-23T10:37:07;12.10;99.90
2929;DHT22;1474;51.460;7.150;2023-03-23T10:39:52;12.00;99.90
2929;DHT22;1474;51.460;7.150;2023-03-23T10:42:28;11.90;99.90
2929;DHT22;1474;51.460;7.150;2023-03-23T10:44:56;11.80;99.90
2929;DHT22;1474;51.460;7.150;2023-03-23T10:47:22;11.90;99.90
2929;DHT22;1474;51.460;7.150;2023-03-23T10:49:54;11.90;99.90
2929;DHT22;1474;51.460;7.150;2023-03-23T10:52:41;12.00;99.90
2929;DHT22;1474;51.460;7.150;2023-03-23T10:57:38;12.10;99.90
2929;DHT22;1474;51.460;7.150;2023-03-23T11:00:06;12.00;99.90
2929;DHT22;1474;51.460;7.150;2023-03-23T11:02:43;12.00;99.90
2929;DHT22;1474;51.460;7.150;2023-03-23T11:05:18;12.10;99.90
2929;DHT22;1474;51.460;7.150;2023-03-23T11:07:52;12.20;99.90
2929;DHT22;1474;51.460;7.150;2023-03-23T11:10:35;12.20;99.90
2929;DHT22;1474;51.460;7.150;2023-03-23T11:13:00;12.20;99.90
2929;DHT22;1474;51.460;7.150;2023-03-23T11:15:35;12.20;99.90
2929;DHT22;1474;51.460;7.150;2023-03-23T11:18:09;12.10;99.90
2929;DHT22;1474;51.460;7.150;2023-03-23T11:20:41;11.90;99.90
2929;DHT22;1474;51.460;7.150;2023-03-23T11:23:31;11.90;99.90
2929;DHT22;1474;51.460;7.150;2023-03-23T11:26:03;11.80;99.90
2929;DHT22;1474;51.460;7.150;2023-03-23T11:28:34;11.80;99.90
2929;DHT22;1474;51.460;7.150;2023-03-23T11:31:03;11.70;99.90
2929;DHT22;1474;51.460;7.150;2023-03-23T11:33:46;11.80;99.90
2929;DHT22;1474;51.460;7.150;2023-03-23T11:36:12;11.70;99.90
2929;DHT22;1474;51.460;7.150;2023-03-23T11:38:38;11.70;99.90
2929;DHT22;1474;51.460;7.150;2023-03-23T11:41:10;11.70;99.90
2929;DHT22;1474;51.460;7.150;2023-03-23T11:43:40;11.60;99.90
2929;DHT22;1474;51.460;7.150;2023-03-23T11:46:18;11.60;99.90
2929;DHT22;1474;51.460;7.150;2023-03-23T11:49:09;11.60;99.90
2929;DHT22;1474;51.460;7.150;2023-03-23T11:51:44;11.70;99.90
2929;DHT22;1474;51.460;7.150;2023-03-23T11:56:49;11.70;99.90
2929;DHT22;1474;51.460;7.150;2023-03-23T11:59:28;11.70;99.90
2929;DHT22;1474;51.460;7.150;2023-03-23T12:08:06;11.80;99.90
2929;DHT22;1474;51.460;7.150;2023-03-23T12:10:58;11.90;99.90
2929;DHT22;1474;51.460;7.150;2023-03-23T12:18:53;12.10;99.90
2929;DHT22;1474;51.460;7.150;2023-03-23T12:32:42;11.70;99.90
2929;DHT22;1474;51.460;7.150;2023-03-23T12:35:48;11.70;99.90
2929;DHT22;1474;51.460;7.150;2023-03-23T12:43:48;11.70;99.90
2929;DHT22;1474;51.460;7.150;2023-03-23T12:48:57;11.70;99.90
2929;DHT22;1474;51.460;7.150;2023-03-23T12:54:16;11.70;99.90
2929;DHT22;1474;51.460;7.150;2023-03-23T13:02:27;11.90;99.90
2929;DHT22;1474;51.460;7.150;2023-03-23T13:05:10;12.10;99.90
2929;DHT22;1474;51.460;7.150;2023-03-23T13:07:43;12.10;99.90
2929;DHT22;1474;51.460;7.150;2023-03-23T13:10:22;12.10;99.90
2929;DHT22;1474;51.460;7.150;2023-03-23T13:12:50;12.10;99.90
2929;DHT22;1474;51.460;7.150;2023-03-23T13:15:26;12.00;99.90
2929;DHT22;1474;51.460;7.150;2023-03-23T13:18:14;12.00;99.90
2929;DHT22;1474;51.460;7.150;2023-03-23T13:26:03;12.10;99.90
2929;DHT22;1474;51.460;7.150;2023-03-23T13:28:51;12.10;99.90
2929;DHT22;1474;51.460;7.150;2023-03-23T13:31:31;12.10;99.90
2929;DHT22;1474;51.460;7.150;2023-03-23T13:34:05;12.20;99.90
2929;DHT22;1474;51.460;7.150;2023-03-23T13:36:35;12.20;99.90
2929;DHT22;1474;51.460;7.150;2023-03-23T13:39:06;12.30;99.90
2929;DHT22;1474;51.460;7.150;2023-03-23T13:41:34;12.40;99.90
2929;DHT22;1474;51.460;7.150;2023-03-23T13:44:20;12.40;99.90
2929;DHT22;1474;51.460;7.150;2023-03-23T13:47:03;12.50;99.90
2929;DHT22;1474;51.460;7.150;2023-03-23T13:49:32;12.50;99.90
2929;DHT22;1474;51.460;7.150;2023-03-23T13:54:44;12.60;99.90
2929;DHT22;1474;51.460;7.150;2023-03-23T13:57:53;12.60;99.90
2929;DHT22;1474;51.460;7.150;2023-03-23T14:08:37;12.60;99.90
2929;DHT22;1474;51.460;7.150;2023-03-23T14:11:29;12.70;99.90
2929;DHT22;1474;51.460;7.150;2023-03-23T14:16:44;12.80;99.90
2929;DHT22;1474;51.460;7.150;2023-03-23T14:19:25;12.90;99.90
2929;DHT22;1474;51.460;7.150;2023-03-23T14:21:59;13.00;99.90
2929;DHT22;1474;51.460;7.150;2023-03-23T14:24:30;13.10;99.90
2929;DHT22;1474;51.460;7.150;2023-03-23T14:27:16;13.20;99.90
2929;DHT22;1474;51.460;7.150;2023-03-23T14:29:42;13.30;99.90
2929;DHT22;1474;51.460;7.150;2023-03-23T14:32:16;13.30;99.90
2929;DHT22;1474;51.460;7.150;2023-03-23T14:34:43;13.40;99.90
2929;DHT22;1474;51.460;7.150;2023-03-23T14:37:13;13.30;99.90
2929;DHT22;1474;51.460;7.150;2023-03-23T14:39:39;13.30;99.90
2929;DHT22;1474;51.460;7.150;2023-03-23T14:42:09;13.40;99.90
2929;DHT22;1474;51.460;7.150;2023-03-23T14:44:48;13.40;99.90
2929;DHT22;1474;51.460;7.150;2023-03-23T14:47:22;13.50;99.90
2929;DHT22;1474;51.460;7.150;2023-03-23T14:49:56;13.70;99.90
2929;DHT22;1474;51.460;7.150;2023-03-23T14:52:27;13.70;99.90
2929;DHT22;1474;51.460;7.150;2023-03-23T14:54:53;13.70;99.90
2929;DHT22;1474;51.460;7.150;2023-03-23T14:57:27;13.80;99.90
2929;DHT22;1474;51.460;7.150;2023-03-23T14:59:53;13.90;99.90
2929;DHT22;1474;51.460;7.150;2023-03-23T15:02:23;13.90;99.90
2929;DHT22;1474;51.460;7.150;2023-03-23T15:04:56;13.90;99.90
2929;DHT22;1474;51.460;7.150;2023-03-23T15:07:29;13.80;99.90
2929;DHT22;1474;51.460;7.150;2023-03-23T15:09:56;13.80;99.90
2929;DHT22;1474;51.460;7.150;2023-03-23T15:12:25;13.60;99.90
2929;DHT22;1474;51.460;7.150;2023-03-23T15:14:53;13.50;99.90
2929;DHT22;1474;51.460;7.150;2023-03-23T15:17:23;13.60;99.90
2929;DHT22;1474;51.460;7.150;2023-03-23T15:19:50;13.50;99.90
2929;DHT22;1474;51.460;7.150;2023-03-23T15:22:24;13.60;99.90
2929;DHT22;1474;51.460;7.150;2023-03-23T15:25:02;13.60;99.90
2929;DHT22;1474;51.460;7.150;2023-03-23T15:27:30;13.70;99.90
2929;DHT22;1474;51.460;7.150;2023-03-23T15:30:12;13.80;99.90
2929;DHT22;1474;51.460;7.150;2023-03-23T15:32:39;13.90;99.90
2929;DHT22;1474;51.460;7.150;2023-03-23T15:35:14;14.00;99.90
2929;DHT22;1474;51.460;7.150;2023-03-23T15:37:44;14.00;99.90
2929;DHT22;1474;51.460;7.150;2023-03-23T15:40:16;14.00;99.90
2929;DHT22;1474;51.460;7.150;2023-03-23T15:42:42;14.00;99.90
2929;DHT22;1474;51.460;7.150;2023-03-23T15:52:40;13.90;99.90
2929;DHT22;1474;51.460;7.150;2023-03-23T15:57:44;13.90;99.90
2929;DHT22;1474;51.460;7.150;2023-03-23T16:00:10;14.00;99.90
2929;DHT22;1474;51.460;7.150;2023-03-23T16:02:36;14.00;99.90
2929;DHT22;1474;51.460;7.150;2023-03-23T16:05:02;13.90;99.90
2929;DHT22;1474;51.460;7.150;2023-03-23T16:07:29;14.00;99.90
2929;DHT22;1474;51.460;7.150;2023-03-23T16:09:55;14.00;99.90
2929;DHT22;1474;51.460;7.150;2023-03-23T16:12:21;13.90;99.90
2929;DHT22;1474;51.460;7.150;2023-03-23T16:14:46;13.90;99.90
2929;DHT22;1474;51.460;7.150;2023-03-23T16:17:17;13.90;99.90
2929;DHT22;1474;51.460;7.150;2023-03-23T16:19:43;13.90;99.90
2929;DHT22;1474;51.460;7.150;2023-03-23T16:22:09;13.80;99.90
2929;DHT22;1474;51.460;7.150;2023-03-23T16:24:34;13.80;99.90
2929;DHT22;1474;51.460;7.150;2023-03-23T16:27:00;13.80;99.90
2929;DHT22;1474;51.460;7.150;2023-03-23T16:29:26;13.80;99.90
2929;DHT22;1474;51.460;7.150;2023-03-23T16:31:52;13.80;99.90
2929;DHT22;1474;51.460;7.150;2023-03-23T16:34:17;13.80;99.90
2929;DHT22;1474;51.460;7.150;2023-03-23T16:36:43;13.80;99.90
2929;DHT22;1474;51.460;7.150;2023-03-23T16:39:11;13.80;99.90
2929;DHT22;1474;51.460;7.150;2023-03-23T16:41:37;13.80;99.90
2929;DHT22;1474;51.460;7.150;2023-03-23T16:44:02;13.80;99.90
2929;DHT22;1474;51.460;7.150;2023-03-23T16:46:28;13.70;99.90
2929;DHT22;1474;51.460;7.150;2023-03-23T16:48:54;13.80;99.90
2929;DHT22;1474;51.460;7.150;2023-03-23T16:51:20;13.70;99.90
2929;DHT22;1474;51.460;7.150;2023-03-23T16:53:46;13.80;99.90
2929;DHT22;1474;51.460;7.150;2023-03-23T16:56:11;13.80;99.90
2929;DHT22;1474;51.460;7.150;2023-03-23T16:58:37;13.80;99.90
2929;DHT22;1474;51.460;7.150;2023-03-23T17:01:03;13.70;99.90
2929;DHT22;1474;51.460;7.150;2023-03-23T17:03:30;13.70;99.90
2929;DHT22;1474;51.460;7.150;2023-03-23T17:05:56;13.70;99.90
2929;DHT22;1474;51.460;7.150;2023-03-23T17:08:23;13.70;99.90
2929;DHT22;1474;51.460;7.150;2023-03-23T17:10:49;13.70;99.90
2929;DHT22;1474;51.460;7.150;2023-03-23T17:13:15;13.70;99.90
2929;DHT22;1474;51.460;7.150;2023-03-23T17:15:42;13.70;99.90
2929;DHT22;1474;51.460;7.150;2023-03-23T17:18:08;13.60;99.90
2929;DHT22;1474;51.460;7.150;2023-03-23T17:20:34;13.70;99.90
2929;DHT22;1474;51.460;7.150;2023-03-23T17:23:00;13.70;99.90
2929;DHT22;1474;51.460;7.150;2023-03-23T17:25:27;13.60;99.90
2929;DHT22;1474;51.460;7.150;2023-03-23T17:27:54;13.60;99.90
2929;DHT22;1474;51.460;7.150;2023-03-23T17:30:20;13.60;99.90
2929;DHT22;1474;51.460;7.150;2023-03-23T17:32:46;13.60;99.90
2929;DHT22;1474;51.460;7.150;2023-03-23T17:35:13;13.50;99.90
2929;DHT22;1474;51.460;7.150;2023-03-23T17:37:39;13.50;99.90
2929;DHT22;1474;51.460;7.150;2023-03-23T17:40:07;13.50;99.90
2929;DHT22;1474;51.460;7.150;2023-03-23T17:42:35;13.40;99.90
2929;DHT22;1474;51.460;7.150;2023-03-23T17:45:05;13.40;99.90
2929;DHT22;1474;51.460;7.150;2023-03-23T17:47:31;13.40;99.90
2929;DHT22;1474;51.460;7.150;2023-03-23T17:49:57;13.40;99.90
2929;DHT22;1474;51.460;7.150;2023-03-23T17:52:23;13.40;99.90
2929;DHT22;1474;51.460;7.150;2023-03-23T17:54:48;13.50;99.90
2929;DHT22;1474;51.460;7.150;2023-03-23T17:57:14;13.40;99.90
2929;DHT22;1474;51.460;7.150;2023-03-23T17:59:40;13.50;99.90
2929;DHT22;1474;51.460;7.150;2023-03-23T18:02:06;13.40;99.90
2929;DHT22;1474;51.460;7.150;2023-03-23T18:04:32;13.40;99.90
2929;DHT22;1474;51.460;7.150;2023-03-23T18:06:58;13.50;99.90
2929;DHT22;1474;51.460;7.150;2023-03-23T18:09:24;13.50;99.90
2929;DHT22;1474;51.460;7.150;2023-03-23T18:11:50;13.40;99.90
2929;DHT22;1474;51.460;7.150;2023-03-23T18:14:16;13.40;99.90